createdAt,value
2022-08-31T00:00:31.361Z,3.33
2022-08-31T00:03:16.741Z,3.45
2022-08-31T00:05:43.569Z,3.72
2022-08-31T00:08:10.446Z,3.58
2022-08-31T00:10:41.103Z,2.80
2022-08-31T00:13:10.158Z,3.15
2022-08-31T00:15:36.991Z,3.58
2022-08-31T00:18:04.678Z,3.88
2022-08-31T00:20:33.447Z,4.18
2022-08-31T00:23:06.298Z,4.32
2022-08-31T00:25:34.719Z,4.38
2022-08-31T00:28:02.442Z,4.22
2022-08-31T00:30:30.560Z,4.75
2022-08-31T00:32:58.585Z,4.60
2022-08-31T00:35:28.413Z,4.65
2022-08-31T00:37:55.630Z,5.05
2022-08-31T00:40:23.935Z,4.95
2022-08-31T00:42:51.367Z,5.63
2022-08-31T00:45:18.697Z,5.60
2022-08-31T00:47:45.469Z,6.20
2022-08-31T00:50:15.916Z,6.63
2022-08-31T00:52:50.916Z,6.60
2022-08-31T00:55:25.655Z,6.07
2022-08-31T00:57:56.090Z,5.60
2022-08-31T01:00:26.249Z,6.28
2022-08-31T01:02:53.978Z,5.63
2022-08-31T01:05:20.962Z,6.25
2022-08-31T01:07:56.203Z,6.22
2022-08-31T01:10:25.952Z,6.15
2022-08-31T01:12:54.721Z,6.30
2022-08-31T01:15:22.807Z,6.18
2022-08-31T01:17:52.626Z,6.63
2022-08-31T01:20:29.033Z,6.43
2022-08-31T01:23:16.260Z,6.72
2022-08-31T01:25:46.239Z,6.50
2022-08-31T01:28:13.411Z,6.55
2022-08-31T01:30:41.999Z,6.32
2022-08-31T01:33:11.909Z,7.03
2022-08-31T01:35:44.483Z,6.60
2022-08-31T01:38:13.267Z,6.32
2022-08-31T01:40:49.402Z,7.18
2022-08-31T01:43:16.606Z,6.53
2022-08-31T01:45:43.762Z,6.45
2022-08-31T01:48:11.168Z,6.53
2022-08-31T01:50:38.359Z,6.80
2022-08-31T01:53:05.751Z,6.55
2022-08-31T01:55:32.848Z,7.20
2022-08-31T01:58:00.790Z,6.95
2022-08-31T02:01:00.599Z,6.50
2022-08-31T02:03:27.596Z,6.88
2022-08-31T02:08:20.331Z,6.47
2022-08-31T02:10:47.793Z,6.45
2022-08-31T02:13:14.775Z,7.53
2022-08-31T02:15:41.804Z,7.68
2022-08-31T02:18:08.642Z,7.32
2022-08-31T02:20:39.257Z,7.03
2022-08-31T02:23:06.350Z,6.45
2022-08-31T02:25:34.905Z,7.07
2022-08-31T02:28:03.933Z,7.30
2022-08-31T02:30:31.235Z,6.90
2022-08-31T02:32:58.240Z,7.22
2022-08-31T02:35:25.151Z,6.75
2022-08-31T02:37:52.029Z,7.18
2022-08-31T02:40:19.121Z,6.82
2022-08-31T02:42:52.734Z,6.70
2022-08-31T02:45:22.966Z,7.05
2022-08-31T02:47:50.129Z,6.13
2022-08-31T02:50:28.024Z,7.40
2022-08-31T02:52:56.775Z,6.43
2022-08-31T02:55:25.478Z,7.00
2022-08-31T02:57:53.329Z,6.80
2022-08-31T03:00:23.594Z,6.65
2022-08-31T03:02:51.074Z,6.28
2022-08-31T03:05:18.490Z,6.93
2022-08-31T03:07:45.455Z,6.40
2022-08-31T03:10:14.779Z,6.75
2022-08-31T03:12:41.993Z,6.18
2022-08-31T03:15:10.414Z,6.60
2022-08-31T03:17:37.719Z,6.70
2022-08-31T03:20:07.256Z,6.63
2022-08-31T03:22:34.840Z,6.95
2022-08-31T03:25:05.785Z,7.00
2022-08-31T03:27:32.790Z,8.27
2022-08-31T03:30:00.745Z,7.88
2022-08-31T03:32:31.981Z,7.78
2022-08-31T03:35:00.939Z,7.53
2022-08-31T03:37:28.707Z,8.02
2022-08-31T03:39:59.753Z,8.25
2022-08-31T03:42:26.940Z,8.38
2022-08-31T03:44:54.846Z,8.23
2022-08-31T03:47:28.415Z,8.38
2022-08-31T03:49:56.040Z,9.13
2022-08-31T03:52:26.024Z,9.55
2022-08-31T03:55:01.096Z,8.02
2022-08-31T03:57:28.265Z,8.88
2022-08-31T03:59:57.615Z,8.68
2022-08-31T04:02:43.733Z,10.60
2022-08-31T04:05:30.643Z,9.68
2022-08-31T04:08:18.142Z,9.52
2022-08-31T04:10:47.592Z,9.43
2022-08-31T04:13:34.312Z,10.32
2022-08-31T04:16:22.597Z,9.82
2022-08-31T04:19:08.735Z,9.68
2022-08-31T04:21:44.351Z,10.75
2022-08-31T04:24:12.358Z,10.07
2022-08-31T04:26:40.834Z,9.95
2022-08-31T04:29:13.106Z,10.48
2022-08-31T04:31:41.259Z,9.15
2022-08-31T04:34:08.669Z,9.57
2022-08-31T04:36:35.616Z,9.15
2022-08-31T04:39:04.136Z,9.32
2022-08-31T04:41:33.395Z,8.90
2022-08-31T04:44:01.542Z,9.23
2022-08-31T04:46:30.226Z,9.75
2022-08-31T04:48:57.918Z,9.35
2022-08-31T04:51:35.509Z,9.63
2022-08-31T04:54:04.839Z,8.88
2022-08-31T04:56:34.584Z,9.00
2022-08-31T04:59:04.415Z,8.65
2022-08-31T05:01:43.340Z,8.07
2022-08-31T05:04:33.828Z,7.95
2022-08-31T05:07:00.663Z,7.65
2022-08-31T05:09:29.383Z,7.60
2022-08-31T05:11:56.601Z,8.10
2022-08-31T05:14:25.082Z,7.63
2022-08-31T05:17:01.265Z,8.02
2022-08-31T05:19:31.938Z,7.60
2022-08-31T05:21:59.178Z,7.80
2022-08-31T05:24:26.534Z,7.55
2022-08-31T05:26:56.128Z,7.40
2022-08-31T05:29:25.843Z,7.13
2022-08-31T05:32:13.006Z,7.80
2022-08-31T05:34:40.056Z,7.55
2022-08-31T05:37:06.965Z,8.07
2022-08-31T05:39:34.428Z,7.38
2022-08-31T05:42:01.383Z,7.50
2022-08-31T05:44:29.219Z,8.02
2022-08-31T05:47:03.455Z,7.95
2022-08-31T05:49:32.349Z,8.35
2022-08-31T05:52:00.909Z,7.93
2022-08-31T05:54:29.563Z,9.10
2022-08-31T05:57:01.012Z,8.25
2022-08-31T05:59:31.085Z,7.75
2022-08-31T06:01:59.051Z,7.65
2022-08-31T06:04:28.398Z,7.50
2022-08-31T06:06:55.549Z,7.43
2022-08-31T06:09:25.763Z,8.02
2022-08-31T06:11:54.179Z,8.25
2022-08-31T06:14:22.932Z,8.18
2022-08-31T06:16:51.164Z,8.52
2022-08-31T06:19:20.513Z,8.18
2022-08-31T06:21:51.326Z,8.30
2022-08-31T06:24:24.408Z,7.88
2022-08-31T06:26:58.484Z,8.23
2022-08-31T06:29:32.341Z,7.72
2022-08-31T06:32:06.092Z,7.85
2022-08-31T06:34:33.642Z,7.78
2022-08-31T06:37:07.264Z,7.28
2022-08-31T06:39:54.205Z,7.88
2022-08-31T06:42:50.594Z,8.05
2022-08-31T06:45:29.502Z,7.55
2022-08-31T06:48:04.458Z,7.13
2022-08-31T06:50:32.451Z,6.18
2022-08-31T06:52:59.305Z,6.18
2022-08-31T06:55:48.977Z,6.50
2022-08-31T06:58:35.063Z,6.22
2022-08-31T07:01:10.200Z,6.65
2022-08-31T07:03:59.282Z,5.85
2022-08-31T07:06:50.619Z,5.60
2022-08-31T07:09:18.266Z,5.53
2022-08-31T07:11:47.833Z,5.68
2022-08-31T07:14:17.504Z,5.47
2022-08-31T07:16:45.581Z,5.35
2022-08-31T07:19:14.603Z,5.38
2022-08-31T07:21:47.885Z,5.32
2022-08-31T07:24:20.426Z,4.80
2022-08-31T07:26:49.833Z,4.60
2022-08-31T07:29:23.106Z,5.68
2022-08-31T07:31:50.467Z,5.22
2022-08-31T07:34:21.231Z,5.13
2022-08-31T07:37:23.473Z,4.78
2022-08-31T07:40:11.261Z,5.15
2022-08-31T07:42:43.770Z,4.80
2022-08-31T07:45:22.900Z,4.53
2022-08-31T07:47:55.040Z,4.55
2022-08-31T07:50:27.358Z,4.47
2022-08-31T07:53:24.775Z,4.80
2022-08-31T07:56:00.456Z,4.20
2022-08-31T07:58:40.199Z,4.75
2022-08-31T08:01:08.264Z,4.25
2022-08-31T08:03:35.885Z,4.78
2022-08-31T08:06:28.600Z,4.78
2022-08-31T08:09:27.046Z,4.68
2022-08-31T08:12:08.268Z,7.38
2022-08-31T08:14:58.393Z,6.40
2022-08-31T08:17:36.925Z,6.20
2022-08-31T08:20:11.646Z,6.78
2022-08-31T08:22:54.253Z,6.63
2022-08-31T08:25:34.455Z,7.43
2022-08-31T08:28:39.103Z,6.80
2022-08-31T08:31:11.356Z,8.40
2022-08-31T08:33:38.456Z,8.75
2022-08-31T08:36:08.254Z,8.55
2022-08-31T08:38:39.175Z,9.73
2022-08-31T08:41:13.157Z,9.90
2022-08-31T08:43:43.934Z,10.77
2022-08-31T08:46:33.343Z,10.95
2022-08-31T08:49:28.449Z,11.38
2022-08-31T08:52:10.983Z,13.02
2022-08-31T08:54:42.601Z,13.40
2022-08-31T08:57:15.124Z,12.43
2022-08-31T08:59:45.217Z,11.77
2022-08-31T09:02:21.494Z,10.70
2022-08-31T09:04:59.863Z,11.48
2022-08-31T09:07:52.314Z,11.40
2022-08-31T09:10:33.555Z,12.90
2022-08-31T09:13:19.704Z,13.55
2022-08-31T09:15:55.267Z,13.23
2022-08-31T09:19:03.323Z,11.55
2022-08-31T09:21:36.981Z,12.68
2022-08-31T09:24:17.086Z,12.55
2022-08-31T09:27:19.241Z,13.25
2022-08-31T09:29:47.728Z,11.70
2022-08-31T09:32:24.840Z,12.75
2022-08-31T09:35:01.620Z,12.15
2022-08-31T09:37:38.105Z,11.73
2022-08-31T09:40:23.273Z,12.88
2022-08-31T09:43:17.787Z,11.07
2022-08-31T09:46:03.800Z,10.82
2022-08-31T09:48:44.042Z,11.18
2022-08-31T09:51:20.602Z,10.85
2022-08-31T09:54:06.606Z,10.23
2022-08-31T09:56:57.596Z,10.90
2022-08-31T09:59:38.808Z,11.43
2022-08-31T10:02:23.172Z,10.70
2022-08-31T10:05:27.486Z,9.55
2022-08-31T10:08:07.482Z,9.63
2022-08-31T10:10:39.201Z,10.27
2022-08-31T10:13:27.489Z,9.65
2022-08-31T10:16:00.116Z,9.50
2022-08-31T10:18:39.536Z,8.90
2022-08-31T10:21:12.230Z,8.45
2022-08-31T10:23:56.457Z,9.82
2022-08-31T10:26:36.809Z,8.00
2022-08-31T10:29:20.762Z,8.25
2022-08-31T10:31:53.491Z,8.60
2022-08-31T10:34:47.094Z,7.68
2022-08-31T10:37:58.629Z,8.45
2022-08-31T10:40:32.133Z,7.65
2022-08-31T10:43:18.749Z,7.47
2022-08-31T10:45:50.885Z,6.68
2022-08-31T10:48:21.427Z,7.75
2022-08-31T10:51:13.262Z,7.82
2022-08-31T10:54:08.479Z,7.97
2022-08-31T10:57:01.210Z,7.55
2022-08-31T11:00:08.594Z,8.20
2022-08-31T11:02:41.236Z,7.18
2022-08-31T11:05:27.011Z,9.02
2022-08-31T11:08:27.462Z,7.72
2022-08-31T11:10:59.186Z,8.07
2022-08-31T11:13:48.658Z,7.93
2022-08-31T11:16:37.063Z,8.15
2022-08-31T11:19:26.402Z,8.95
2022-08-31T11:22:19.623Z,8.70
2022-08-31T11:24:58.569Z,9.05
2022-08-31T11:27:38.247Z,9.02
2022-08-31T11:30:24.428Z,9.43
2022-08-31T11:32:57.544Z,8.73
2022-08-31T11:36:05.382Z,8.82
2022-08-31T11:38:47.926Z,10.35
2022-08-31T11:41:48.635Z,9.65
2022-08-31T11:44:30.887Z,10.05
2022-08-31T11:47:07.372Z,10.15
2022-08-31T11:49:37.273Z,9.40
2022-08-31T11:52:10.428Z,9.57
2022-08-31T11:54:42.659Z,10.18
2022-08-31T11:57:15.912Z,9.82
2022-08-31T11:59:46.384Z,9.85
2022-08-31T12:02:43.712Z,10.85
2022-08-31T12:05:11.395Z,10.73
2022-08-31T12:07:46.322Z,10.50
2022-08-31T12:10:36.575Z,10.77
2022-08-31T12:13:07.456Z,10.23
2022-08-31T12:15:43.352Z,11.52
2022-08-31T12:18:32.050Z,10.63
2022-08-31T12:21:41.423Z,12.35
2022-08-31T12:24:51.299Z,11.48
2022-08-31T12:27:35.449Z,11.00
2022-08-31T12:30:22.992Z,11.57
2022-08-31T12:33:01.734Z,13.20
2022-08-31T12:35:31.639Z,11.75
2022-08-31T12:38:19.939Z,12.02
2022-08-31T12:40:57.471Z,10.80
2022-08-31T12:43:46.546Z,12.10
2022-08-31T12:46:37.574Z,12.05
2022-08-31T12:49:24.888Z,11.60
2022-08-31T12:52:09.679Z,11.32
2022-08-31T12:55:15.575Z,11.77
2022-08-31T12:57:51.084Z,12.27
2022-08-31T13:00:31.963Z,10.25
2022-08-31T13:03:06.539Z,10.88
2022-08-31T13:05:36.693Z,9.63
2022-08-31T13:08:24.164Z,9.25
2022-08-31T13:10:51.560Z,10.70
2022-08-31T13:13:28.342Z,11.52
2022-08-31T13:16:08.190Z,11.15
2022-08-31T13:18:36.104Z,12.48
2022-08-31T13:21:06.812Z,12.73
2022-08-31T13:23:40.965Z,12.13
2022-08-31T13:26:21.364Z,13.15
2022-08-31T13:28:52.565Z,13.82
2022-08-31T13:31:24.922Z,12.60
2022-08-31T13:33:59.247Z,13.65
2022-08-31T13:36:58.431Z,12.43
2022-08-31T13:39:39.140Z,12.48
2022-08-31T13:42:37.717Z,13.43
2022-08-31T13:45:09.149Z,12.27
2022-08-31T13:50:32.731Z,11.55
2022-08-31T13:55:52.311Z,11.38
2022-08-31T13:58:29.500Z,10.88
2022-08-31T14:01:21.366Z,9.93
2022-08-31T14:03:59.475Z,10.40
2022-08-31T14:06:32.278Z,9.63
2022-08-31T14:09:19.394Z,8.50
2022-08-31T14:12:01.286Z,8.55
2022-08-31T14:14:35.550Z,9.20
2022-08-31T14:17:03.365Z,9.68
2022-08-31T14:19:38.831Z,9.70
2022-08-31T14:22:26.412Z,10.18
2022-08-31T14:24:55.668Z,10.52
2022-08-31T14:27:24.030Z,9.75
2022-08-31T14:29:52.186Z,10.18
2022-08-31T14:32:19.992Z,9.48
2022-08-31T14:34:51.073Z,8.85
2022-08-31T14:37:28.785Z,8.85
2022-08-31T14:40:05.550Z,8.05
2022-08-31T14:42:38.126Z,8.05
2022-08-31T14:45:09.142Z,7.03
2022-08-31T14:47:41.789Z,8.38
2022-08-31T14:50:09.294Z,8.40
2022-08-31T14:52:39.789Z,8.75
2022-08-31T14:55:09.194Z,8.07
2022-08-31T14:57:36.546Z,7.65
2022-08-31T15:00:05.896Z,7.20
2022-08-31T15:02:34.546Z,7.75
2022-08-31T15:05:07.195Z,7.35
2022-08-31T15:07:37.454Z,7.45
2022-08-31T15:10:06.916Z,6.63
2022-08-31T15:12:34.819Z,7.40
2022-08-31T15:15:01.723Z,7.28
2022-08-31T15:17:33.686Z,8.70
2022-08-31T15:20:03.473Z,6.85
2022-08-31T15:22:31.420Z,6.30
2022-08-31T15:24:58.994Z,6.78
2022-08-31T15:27:28.747Z,7.05
2022-08-31T15:30:02.475Z,7.03
2022-08-31T15:32:29.332Z,6.80
2022-08-31T15:34:58.764Z,6.15
2022-08-31T15:37:30.760Z,6.97
2022-08-31T15:40:00.478Z,7.43
2022-08-31T15:42:29.344Z,6.85
2022-08-31T15:44:56.943Z,6.80
2022-08-31T15:47:43.625Z,6.75
2022-08-31T15:50:10.934Z,7.10
2022-08-31T15:52:45.733Z,7.15
2022-08-31T15:55:21.612Z,6.57
2022-08-31T15:57:48.850Z,6.90
2022-08-31T16:00:15.955Z,6.70
2022-08-31T16:02:43.856Z,7.38
2022-08-31T16:05:13.262Z,6.65
2022-08-31T16:07:41.432Z,6.57
2022-08-31T16:10:19.343Z,6.65
2022-08-31T16:12:47.756Z,6.95
2022-08-31T16:15:15.534Z,6.40
2022-08-31T16:17:42.776Z,6.70
2022-08-31T16:20:11.995Z,6.53
2022-08-31T16:22:40.147Z,7.72
2022-08-31T16:25:14.051Z,8.45
2022-08-31T16:27:41.637Z,10.52
2022-08-31T16:30:11.131Z,9.93
2022-08-31T16:32:38.519Z,11.40
2022-08-31T16:35:06.080Z,10.18
2022-08-31T16:37:33.772Z,11.48
2022-08-31T16:40:00.865Z,9.95
2022-08-31T16:42:27.719Z,9.57
2022-08-31T16:44:59.833Z,11.15
2022-08-31T16:47:29.045Z,9.73
2022-08-31T16:49:56.365Z,11.13
2022-08-31T16:52:27.270Z,11.45
2022-08-31T16:54:57.390Z,10.48
2022-08-31T16:57:27.708Z,11.32
2022-08-31T16:59:57.007Z,11.60
2022-08-31T17:02:25.301Z,11.68
2022-08-31T17:04:53.932Z,11.15
2022-08-31T17:07:24.203Z,11.02
2022-08-31T17:09:55.730Z,11.25
2022-08-31T17:14:53.137Z,11.10
2022-08-31T17:17:22.916Z,12.00
2022-08-31T17:19:52.090Z,12.40
2022-08-31T17:22:27.044Z,11.32
2022-08-31T17:24:58.658Z,12.30
2022-08-31T17:27:27.016Z,10.82
2022-08-31T17:30:00.798Z,10.75
2022-08-31T17:32:28.356Z,10.38
2022-08-31T17:34:55.636Z,9.45
2022-08-31T17:37:26.825Z,9.23
2022-08-31T17:39:54.993Z,10.45
2022-08-31T17:42:26.920Z,12.98
2022-08-31T17:44:54.502Z,10.95
2022-08-31T17:47:23.260Z,15.35
2022-08-31T17:49:51.114Z,10.35
2022-08-31T17:52:21.605Z,11.75
2022-08-31T17:54:51.046Z,11.43
2022-08-31T17:57:21.243Z,10.70
2022-08-31T17:59:49.121Z,11.00
2022-08-31T18:02:27.630Z,11.10
2022-08-31T18:04:54.739Z,12.65
2022-08-31T18:07:21.762Z,12.30
2022-08-31T18:09:48.755Z,13.25
2022-08-31T18:12:18.223Z,12.13
2022-08-31T18:14:45.293Z,11.85
2022-08-31T18:17:16.283Z,10.63
2022-08-31T18:19:44.757Z,10.95
2022-08-31T18:22:14.520Z,10.00
2022-08-31T18:24:43.196Z,9.57
2022-08-31T18:27:11.842Z,11.02
2022-08-31T18:29:39.432Z,10.80
2022-08-31T18:32:07.506Z,9.02
2022-08-31T18:34:38.992Z,10.73
2022-08-31T18:37:07.364Z,10.23
2022-08-31T18:39:53.113Z,10.40
2022-08-31T18:42:39.699Z,11.68
2022-08-31T18:45:20.875Z,10.75
2022-08-31T18:50:45.217Z,10.68
2022-08-31T18:55:43.642Z,11.57
2022-08-31T18:58:10.705Z,12.95
2022-08-31T19:00:38.111Z,10.30
2022-08-31T19:03:05.750Z,11.05
2022-08-31T19:05:33.035Z,11.88
2022-08-31T19:08:00.494Z,10.88
2022-08-31T19:10:28.253Z,11.32
2022-08-31T19:12:55.807Z,11.02
2022-08-31T19:15:25.627Z,12.93
2022-08-31T19:18:05.405Z,11.18
2022-08-31T19:20:33.427Z,11.80
2022-08-31T19:23:00.570Z,12.70
2022-08-31T19:25:27.748Z,12.50
2022-08-31T19:27:55.553Z,12.75
2022-08-31T19:30:27.805Z,11.60
2022-08-31T19:32:56.388Z,8.43
2022-08-31T19:35:26.911Z,10.40
2022-08-31T19:37:55.447Z,11.10
2022-08-31T19:40:22.795Z,10.07
2022-08-31T19:45:45.609Z,10.05
2022-08-31T19:48:13.422Z,9.60
2022-08-31T19:50:41.896Z,9.88
2022-08-31T19:53:13.458Z,9.95
2022-08-31T19:55:50.143Z,9.48
2022-08-31T19:58:18.585Z,8.45
2022-08-31T20:00:48.035Z,7.90
2022-08-31T20:03:15.863Z,8.23
2022-08-31T20:05:43.710Z,6.35
2022-08-31T20:08:11.078Z,6.28
2022-08-31T20:10:45.817Z,4.82
2022-08-31T20:13:13.264Z,5.30
2022-08-31T20:15:43.767Z,4.55
2022-08-31T20:18:14.140Z,4.97
2022-08-31T20:20:48.208Z,4.43
2022-08-31T20:23:18.008Z,4.07
2022-08-31T20:25:46.764Z,3.38
2022-08-31T20:28:17.825Z,3.83
2022-08-31T20:30:45.404Z,3.78
2022-08-31T20:33:12.326Z,4.05
2022-08-31T20:35:47.240Z,3.50
2022-08-31T20:38:16.421Z,4.10
2022-08-31T20:40:45.854Z,4.20
2022-08-31T20:43:13.849Z,4.45
2022-08-31T20:45:41.761Z,4.15
2022-08-31T20:48:28.757Z,4.45
2022-08-31T20:50:56.417Z,4.63
2022-08-31T20:53:39.051Z,4.82
2022-08-31T20:56:14.771Z,3.85
2022-08-31T20:58:45.932Z,3.88
2022-08-31T21:01:16.087Z,3.63
2022-08-31T21:03:43.316Z,4.00
2022-08-31T21:06:14.048Z,3.95
2022-08-31T21:08:42.508Z,3.88
2022-08-31T21:11:14.229Z,3.80
2022-08-31T21:16:10.309Z,3.33
2022-08-31T21:18:38.052Z,4.00
2022-08-31T21:21:14.521Z,4.53
2022-08-31T21:23:41.369Z,4.22
2022-08-31T21:26:11.169Z,3.50
2022-08-31T21:28:38.517Z,3.60
2022-08-31T21:31:18.675Z,3.75
2022-08-31T21:33:59.567Z,3.97
2022-08-31T21:36:27.603Z,3.38
2022-08-31T21:38:56.731Z,4.32
2022-08-31T21:41:26.874Z,3.60
2022-08-31T21:43:55.872Z,4.00
2022-08-31T21:46:25.919Z,4.07
2022-08-31T21:48:55.449Z,3.50
2022-08-31T21:51:35.322Z,3.80
2022-08-31T21:54:06.051Z,3.92
2022-08-31T21:56:38.976Z,4.03
2022-08-31T21:59:06.924Z,3.60
2022-08-31T22:01:35.267Z,3.42
2022-08-31T22:04:04.504Z,3.42
2022-08-31T22:06:31.635Z,4.10
2022-08-31T22:09:01.301Z,3.88
2022-08-31T22:11:30.708Z,3.92
2022-08-31T22:13:58.985Z,4.13
2022-08-31T22:16:26.690Z,3.45
2022-08-31T22:19:02.113Z,3.83
2022-08-31T22:21:34.599Z,3.42
2022-08-31T22:24:07.864Z,3.95
2022-08-31T22:26:37.333Z,3.92
2022-08-31T22:29:06.503Z,3.25
2022-08-31T22:31:37.293Z,3.85
2022-08-31T22:34:08.499Z,3.95
2022-08-31T22:36:35.975Z,3.45
2022-08-31T22:39:12.242Z,3.78
2022-08-31T22:41:41.171Z,3.45
2022-08-31T22:44:11.426Z,3.90
2022-08-31T22:46:39.941Z,3.88
2022-08-31T22:49:07.764Z,3.75
2022-08-31T22:51:36.539Z,3.42
2022-08-31T22:54:04.031Z,3.50
2022-08-31T22:56:33.136Z,4.15
2022-08-31T22:59:08.172Z,3.60
2022-08-31T23:01:38.982Z,3.17
2022-08-31T23:04:07.859Z,4.15
2022-08-31T23:06:36.551Z,3.58
2022-08-31T23:09:07.548Z,4.07
2022-08-31T23:11:34.842Z,4.00
2022-08-31T23:14:07.254Z,3.92
2022-08-31T23:16:38.140Z,3.50
2022-08-31T23:19:12.438Z,3.65
2022-08-31T23:21:46.058Z,3.55
2022-08-31T23:24:20.086Z,4.22
2022-08-31T23:26:48.123Z,3.63
2022-08-31T23:29:18.336Z,4.57
2022-08-31T23:31:48.670Z,4.10
2022-08-31T23:34:16.829Z,3.83
2022-08-31T23:36:49.215Z,4.00
2022-08-31T23:39:21.082Z,3.92
2022-08-31T23:41:48.899Z,3.83
2022-08-31T23:44:16.663Z,3.50
2022-08-31T23:46:43.847Z,3.60
2022-08-31T23:49:12.719Z,4.07
2022-08-31T23:51:39.928Z,4.18
2022-08-31T23:54:08.333Z,4.10
2022-08-31T23:56:37.884Z,4.10
2022-08-31T23:59:09.496Z,4.20
